createdAt,value
2018-03-17T00:01:13.059Z,96128.54
2018-03-17T00:03:44.047Z,96134.42
2018-03-17T00:06:15.049Z,96129.02
2018-03-17T00:08:46.018Z,96125.89
2018-03-17T00:11:16.989Z,96118.69
2018-03-17T00:13:47.972Z,96108.48
2018-03-17T00:16:19.005Z,96113.05
2018-03-17T00:18:50.012Z,96109.89
2018-03-17T00:21:20.979Z,96107.67
2018-03-17T00:23:51.976Z,96103.46
2018-03-17T00:26:22.965Z,96109.98
2018-03-17T00:28:53.988Z,96099.86
2018-03-17T00:31:24.982Z,96097.63
2018-03-17T00:33:56.001Z,96093.69
2018-03-17T00:36:26.968Z,96086.73
2018-03-17T00:38:57.974Z,96090.89
2018-03-17T00:41:28.954Z,96085.28
2018-03-17T00:43:59.944Z,96088.26
2018-03-17T00:46:30.955Z,96076.08
2018-03-17T00:49:01.966Z,96069.80
2018-03-17T00:51:32.931Z,96070.98
2018-03-17T00:54:03.977Z,96066.52
2018-03-17T00:56:34.964Z,96059.20
2018-03-17T00:59:05.960Z,96059.84
2018-03-17T01:01:36.961Z,96061.79
2018-03-17T01:04:07.947Z,96064.80
2018-03-17T01:06:39.042Z,96058.21
2018-03-17T01:09:10.055Z,96059.77
2018-03-17T01:11:41.082Z,96064.59
2018-03-17T01:14:12.069Z,96059.89
2018-03-17T01:16:43.122Z,96065.51
2018-03-17T01:19:14.125Z,96063.14
2018-03-17T01:21:45.388Z,96059.86
2018-03-17T01:24:16.403Z,96070.34
2018-03-17T01:26:47.403Z,96067.36
2018-03-17T01:29:18.393Z,96059.97
2018-03-17T01:31:49.360Z,96052.69
2018-03-17T01:34:20.379Z,96051.68
2018-03-17T01:36:51.342Z,96037.34
2018-03-17T01:39:22.369Z,96040.80
2018-03-17T01:41:53.385Z,96034.59
2018-03-17T01:44:24.333Z,96032.28
2018-03-17T01:46:55.380Z,96031.14
2018-03-17T01:49:26.362Z,96032.42
2018-03-17T01:51:57.433Z,96026.66
2018-03-17T01:54:30.258Z,96017.84
2018-03-17T01:57:01.261Z,96013.91
2018-03-17T01:59:32.293Z,96013.99
2018-03-17T02:02:03.305Z,96005.95
2018-03-17T02:04:34.357Z,96011.27
2018-03-17T02:07:05.329Z,96008.48
2018-03-17T02:09:36.300Z,96014.77
2018-03-17T02:12:07.313Z,96007.39
2018-03-17T02:14:38.347Z,96001.41
2018-03-17T02:17:09.387Z,95991.31
2018-03-17T02:19:40.392Z,95986.06
2018-03-17T02:22:11.462Z,95985.16
2018-03-17T02:24:42.521Z,95981.73
2018-03-17T02:27:13.500Z,95978.20
2018-03-17T02:29:44.506Z,95971.00
2018-03-17T02:32:15.712Z,95974.55
2018-03-17T02:34:46.747Z,95971.14
2018-03-17T02:37:17.761Z,95972.72
2018-03-17T02:39:48.802Z,95967.10
2018-03-17T02:42:19.799Z,95971.79
2018-03-17T02:44:50.792Z,95973.73
2018-03-17T02:47:21.804Z,95974.64
2018-03-17T02:49:52.801Z,95968.91
2018-03-17T02:52:23.773Z,95968.93
2018-03-17T02:54:54.761Z,95965.78
2018-03-17T02:57:25.752Z,95961.98
2018-03-17T02:59:56.800Z,95960.02
2018-03-17T03:02:27.772Z,95960.26
2018-03-17T03:04:58.774Z,95960.92
2018-03-17T03:07:29.765Z,95958.44
2018-03-17T03:10:00.782Z,95961.94
2018-03-17T03:12:31.763Z,95955.95
2018-03-17T03:15:02.816Z,95952.67
2018-03-17T03:17:33.822Z,95953.05
2018-03-17T03:20:04.861Z,95951.89
2018-03-17T03:22:35.819Z,95957.36
2018-03-17T03:25:06.830Z,95961.28
2018-03-17T03:27:37.808Z,95966.23
2018-03-17T03:30:08.845Z,95975.10
2018-03-17T03:32:39.869Z,95975.92
2018-03-17T03:35:10.848Z,95977.30
2018-03-17T03:37:41.860Z,95976.36
2018-03-17T03:40:12.852Z,95975.97
2018-03-17T03:42:43.804Z,95977.52
2018-03-17T03:45:14.759Z,95978.46
2018-03-17T03:47:45.739Z,95978.19
2018-03-17T03:50:16.714Z,95968.91
2018-03-17T03:52:47.713Z,95975.16
2018-03-17T03:55:18.684Z,95971.95
2018-03-17T03:57:49.649Z,95973.86
2018-03-17T04:00:20.634Z,95966.89
2018-03-17T04:02:51.681Z,95958.19
2018-03-17T04:05:22.671Z,95956.66
2018-03-17T04:07:53.657Z,95959.69
2018-03-17T04:10:24.715Z,95949.79
2018-03-17T04:12:55.706Z,95953.59
2018-03-17T04:15:26.769Z,95952.28
2018-03-17T04:17:57.722Z,95951.25
2018-03-17T04:20:28.749Z,95943.39
2018-03-17T04:22:59.722Z,95937.25
2018-03-17T04:25:30.724Z,95930.20
2018-03-17T04:28:01.710Z,95931.25
2018-03-17T04:30:32.721Z,95923.80
2018-03-17T04:33:03.708Z,95921.19
2018-03-17T04:35:34.724Z,95919.48
2018-03-17T04:38:05.724Z,95918.28
2018-03-17T04:40:36.749Z,95913.19
2018-03-17T04:43:07.771Z,95913.47
2018-03-17T04:45:38.755Z,95908.09
2018-03-17T04:48:09.729Z,95915.14
2018-03-17T04:50:40.796Z,95905.87
2018-03-17T04:53:11.761Z,95912.16
2018-03-17T04:55:42.764Z,95909.39
2018-03-17T04:58:13.777Z,95902.34
2018-03-17T05:00:44.771Z,95905.99
2018-03-17T05:03:15.789Z,95910.56
2018-03-17T05:05:46.786Z,95911.76
2018-03-17T05:08:17.776Z,95915.14
2018-03-17T05:10:48.762Z,95923.66
2018-03-17T05:13:19.735Z,95918.42
2018-03-17T05:15:50.746Z,95921.27
2018-03-17T05:18:21.715Z,95919.81
2018-03-17T05:20:52.727Z,95912.75
2018-03-17T05:23:23.691Z,95912.34
2018-03-17T05:25:54.684Z,95913.13
2018-03-17T05:28:25.665Z,95911.57
2018-03-17T05:30:56.638Z,95908.30
2018-03-17T05:33:27.634Z,95913.95
2018-03-17T05:35:58.656Z,95908.45
2018-03-17T05:38:29.681Z,95910.67
2018-03-17T05:41:00.680Z,95905.00
2018-03-17T05:43:31.663Z,95906.48
2018-03-17T05:46:05.594Z,95903.58
2018-03-17T05:48:36.595Z,95906.88
2018-03-17T05:51:07.613Z,95900.84
2018-03-17T05:53:38.610Z,95901.47
2018-03-17T05:56:09.606Z,95902.15
2018-03-17T05:58:40.646Z,95899.77
2018-03-17T06:01:11.630Z,95891.95
2018-03-17T06:03:42.653Z,95893.89
2018-03-17T06:06:13.667Z,95893.66
2018-03-17T06:08:44.657Z,95890.39
2018-03-17T06:11:15.697Z,95890.54
2018-03-17T06:13:46.712Z,95894.20
2018-03-17T06:16:17.710Z,95888.45
2018-03-17T06:18:48.744Z,95893.05
2018-03-17T06:21:19.755Z,95893.44
2018-03-17T06:23:50.738Z,95893.03
2018-03-17T06:26:21.731Z,95892.89
2018-03-17T06:28:52.728Z,95893.30
2018-03-17T06:31:23.733Z,95895.00
2018-03-17T06:33:54.757Z,95890.02
2018-03-17T06:36:25.783Z,95887.66
2018-03-17T06:38:56.792Z,95889.35
2018-03-17T06:41:27.795Z,95887.03
2018-03-17T06:43:58.784Z,95886.09
2018-03-17T06:46:29.799Z,95891.19
2018-03-17T06:49:00.814Z,95890.92
2018-03-17T06:51:31.845Z,95879.06
2018-03-17T06:54:02.855Z,95886.63
2018-03-17T06:56:33.844Z,95879.95
2018-03-17T06:59:04.859Z,95874.59
2018-03-17T07:01:35.917Z,95879.97
2018-03-17T07:04:06.924Z,95878.50
2018-03-17T07:06:37.973Z,95878.48
2018-03-17T07:09:09.011Z,95874.84
2018-03-17T07:11:40.023Z,95876.80
2018-03-17T07:14:11.021Z,95876.91
2018-03-17T07:16:42.018Z,95874.67
2018-03-17T07:19:13.063Z,95880.03
2018-03-17T07:21:44.121Z,95874.06
2018-03-17T07:24:15.139Z,95872.34
2018-03-17T07:26:46.176Z,95869.45
2018-03-17T07:29:17.178Z,95867.99
2018-03-17T07:31:48.210Z,95862.63
2018-03-17T07:34:19.229Z,95867.36
2018-03-17T07:36:50.280Z,95860.50
2018-03-17T07:39:21.321Z,95868.78
2018-03-17T07:41:52.486Z,95865.23
2018-03-17T07:44:23.504Z,95864.95
2018-03-17T07:46:54.503Z,95859.38
2018-03-17T07:49:25.598Z,95861.58
2018-03-17T07:51:56.573Z,95857.23
2018-03-17T07:54:27.598Z,95855.64
2018-03-17T07:56:58.563Z,95850.37
2018-03-17T07:59:29.568Z,95850.80
2018-03-17T08:02:00.582Z,95849.63
2018-03-17T08:04:31.582Z,95853.59
2018-03-17T08:07:02.667Z,95847.25
2018-03-17T08:09:33.729Z,95855.78
2018-03-17T08:12:04.714Z,95863.08
2018-03-17T08:14:35.675Z,95867.12
2018-03-17T08:17:06.685Z,95856.56
2018-03-17T08:19:37.703Z,95855.62
2018-03-17T08:22:08.742Z,95849.59
2018-03-17T08:24:39.756Z,95851.20
2018-03-17T08:27:10.797Z,95859.38
2018-03-17T08:29:41.822Z,95850.41
2018-03-17T08:32:12.872Z,95854.78
2018-03-17T08:34:43.892Z,95848.85
2018-03-17T08:37:21.951Z,95847.72
2018-03-17T08:39:52.966Z,95839.91
2018-03-17T08:42:23.958Z,95838.00
2018-03-17T08:44:55.010Z,95841.06
2018-03-17T08:47:26.074Z,95836.52
2018-03-17T08:49:57.156Z,95841.25
2018-03-17T08:52:28.238Z,95842.08
2018-03-17T08:54:59.243Z,95840.55
2018-03-17T08:57:30.195Z,95841.64
2018-03-17T09:00:01.203Z,95834.20
2018-03-17T09:02:32.164Z,95835.88
2018-03-17T09:05:03.217Z,95834.83
2018-03-17T09:07:34.257Z,95839.26
2018-03-17T09:10:05.203Z,95841.21
2018-03-17T09:12:36.318Z,95837.41
2018-03-17T09:15:07.303Z,95834.66
2018-03-17T09:17:38.284Z,95836.59
2018-03-17T09:20:09.269Z,95832.13
2018-03-17T09:22:40.250Z,95824.48
2018-03-17T09:25:11.277Z,95829.83
2018-03-17T09:27:42.334Z,95818.25
2018-03-17T09:30:13.320Z,95828.53
2018-03-17T09:32:44.327Z,95827.58
2018-03-17T09:35:15.305Z,95827.16
2018-03-17T09:37:46.313Z,95823.44
2018-03-17T09:40:17.330Z,95821.26
2018-03-17T09:42:48.356Z,95828.85
2018-03-17T09:45:19.382Z,95826.10
2018-03-17T09:47:50.375Z,95810.89
2018-03-17T09:50:21.385Z,95818.06
2018-03-17T09:52:52.363Z,95821.34
2018-03-17T09:55:23.362Z,95816.91
2018-03-17T09:57:54.604Z,95811.96
2018-03-17T10:00:25.651Z,95800.36
2018-03-17T10:02:56.618Z,95806.02
2018-03-17T10:05:27.611Z,95802.83
2018-03-17T10:07:58.573Z,95801.94
2018-03-17T10:10:29.591Z,95800.64
2018-03-17T10:13:00.575Z,95802.17
2018-03-17T10:15:31.535Z,95788.36
2018-03-17T10:18:02.507Z,95782.14
2018-03-17T10:20:33.485Z,95774.17
2018-03-17T10:23:04.516Z,95782.44
2018-03-17T10:25:35.507Z,95771.70
2018-03-17T10:28:06.481Z,95769.64
2018-03-17T10:30:37.469Z,95773.64
2018-03-17T10:33:08.451Z,95770.11
2018-03-17T10:35:39.454Z,95770.13
2018-03-17T10:38:10.455Z,95773.14
2018-03-17T10:40:41.480Z,95765.96
2018-03-17T10:43:12.534Z,95761.05
2018-03-17T10:45:43.559Z,95766.02
2018-03-17T10:48:14.586Z,95758.88
2018-03-17T10:50:45.577Z,95757.89
2018-03-17T10:53:16.584Z,95752.35
2018-03-17T10:55:47.619Z,95756.11
2018-03-17T10:58:18.657Z,95748.57
2018-03-17T11:00:53.702Z,95748.84
2018-03-17T11:03:24.703Z,95743.75
2018-03-17T11:05:55.819Z,95742.26
2018-03-17T11:08:26.871Z,95746.51
2018-03-17T11:10:57.973Z,95738.67
2018-03-17T11:13:28.986Z,95738.58
2018-03-17T11:16:00.019Z,95730.98
2018-03-17T11:18:31.179Z,95728.09
2018-03-17T11:21:02.179Z,95722.64
2018-03-17T11:23:33.170Z,95720.95
2018-03-17T11:26:04.223Z,95716.44
2018-03-17T11:28:35.233Z,95720.75
2018-03-17T11:31:06.235Z,95706.39
2018-03-17T11:33:37.204Z,95709.77
2018-03-17T11:36:08.187Z,95711.05
2018-03-17T11:38:39.221Z,95698.20
2018-03-17T11:41:10.224Z,95707.23
2018-03-17T11:43:41.263Z,95699.92
2018-03-17T11:46:12.239Z,95703.98
2018-03-17T11:48:43.224Z,95693.27
2018-03-17T11:51:14.184Z,95705.25
2018-03-17T11:53:45.171Z,95698.69
2018-03-17T11:56:16.140Z,95700.92
2018-03-17T11:58:47.200Z,95693.98
2018-03-17T12:01:18.214Z,95692.70
2018-03-17T12:03:49.280Z,95696.16
2018-03-17T12:06:20.252Z,95689.51
2018-03-17T12:08:51.330Z,95692.47
2018-03-17T12:11:22.360Z,95694.61
2018-03-17T12:13:53.363Z,95685.06
2018-03-17T12:16:24.333Z,95677.38
2018-03-17T12:18:55.447Z,95676.78
2018-03-17T12:21:26.421Z,95678.19
2018-03-17T12:23:57.424Z,95673.41
2018-03-17T12:26:28.388Z,95674.29
2018-03-17T12:28:59.413Z,95676.97
2018-03-17T12:31:30.400Z,95669.17
2018-03-17T12:34:01.440Z,95673.44
2018-03-17T12:36:32.469Z,95668.91
2018-03-17T12:39:03.508Z,95670.91
2018-03-17T12:41:34.599Z,95672.91
2018-03-17T12:44:05.597Z,95663.97
2018-03-17T12:46:36.593Z,95664.94
2018-03-17T12:49:07.605Z,95658.50
2018-03-17T12:51:38.596Z,95662.36
2018-03-17T12:54:09.551Z,95662.25
2018-03-17T12:56:40.608Z,95652.12
2018-03-17T12:59:11.591Z,95666.06
2018-03-17T13:01:42.557Z,95664.77
2018-03-17T13:04:13.621Z,95659.75
2018-03-17T13:06:44.652Z,95649.16
2018-03-17T13:09:15.638Z,95649.41
2018-03-17T13:11:46.675Z,95657.08
2018-03-17T13:14:17.711Z,95650.64
2018-03-17T13:16:48.724Z,95653.01
2018-03-17T13:19:27.085Z,95654.21
2018-03-17T13:21:58.019Z,95656.42
2018-03-17T13:24:29.033Z,95658.39
2018-03-17T13:27:12.288Z,95659.67
2018-03-17T13:29:43.351Z,95666.09
2018-03-17T13:32:26.856Z,95674.96
2018-03-17T13:34:57.931Z,95678.17
2018-03-17T13:37:39.972Z,95685.64
2018-03-17T13:40:23.286Z,95674.31
2018-03-17T13:42:54.529Z,95675.56
2018-03-17T13:45:25.569Z,95665.40
2018-03-17T13:47:56.593Z,95665.72
2018-03-17T13:50:28.479Z,95676.91
2018-03-17T13:52:59.503Z,95681.77
2018-03-17T13:55:30.510Z,95688.75
2018-03-17T13:58:01.531Z,95690.39
2018-03-17T14:00:33.386Z,95692.27
2018-03-17T14:03:04.378Z,95688.11
2018-03-17T14:05:35.545Z,95695.16
2018-03-17T14:08:06.536Z,95682.23
2018-03-17T14:10:37.609Z,95677.66
2018-03-17T14:13:08.602Z,95675.44
2018-03-17T14:15:39.589Z,95680.27
2018-03-17T14:18:10.615Z,95691.51
2018-03-17T14:20:41.602Z,95676.84
2018-03-17T14:23:12.605Z,95683.36
2018-03-17T14:25:43.864Z,95671.82
2018-03-17T14:28:14.841Z,95676.55
2018-03-17T14:30:45.959Z,95675.20
2018-03-17T14:33:16.988Z,95674.06
2018-03-17T14:35:48.023Z,95689.06
2018-03-17T14:38:19.102Z,95679.63
2018-03-17T14:40:50.119Z,95676.40
2018-03-17T14:43:21.113Z,95682.86
2018-03-17T14:45:52.140Z,95685.16
2018-03-17T14:48:23.171Z,95684.77
2018-03-17T14:50:54.168Z,95694.61
2018-03-17T14:53:25.172Z,95709.67
2018-03-17T14:55:56.209Z,95718.42
2018-03-17T14:58:27.249Z,95693.84
2018-03-17T15:00:58.344Z,95705.09
2018-03-17T15:03:29.361Z,95695.17
2018-03-17T15:06:00.472Z,95699.00
2018-03-17T15:08:31.509Z,95692.57
2018-03-17T15:11:02.536Z,95699.83
2018-03-17T15:13:33.539Z,95696.09
2018-03-17T15:16:04.527Z,95700.63
2018-03-17T15:18:35.666Z,95701.59
2018-03-17T15:21:06.666Z,95705.22
2018-03-17T15:23:37.662Z,95701.25
2018-03-17T15:26:08.662Z,95698.53
2018-03-17T15:28:39.633Z,95691.88
2018-03-17T15:31:10.673Z,95701.25
2018-03-17T15:33:41.648Z,95693.67
2018-03-17T15:36:12.669Z,95700.07
2018-03-17T15:38:43.723Z,95707.24
2018-03-17T15:41:14.718Z,95691.12
2018-03-17T15:43:45.727Z,95705.96
2018-03-17T15:46:16.720Z,95704.72
2018-03-17T15:48:47.731Z,95705.69
2018-03-17T15:51:18.720Z,95712.25
2018-03-17T15:53:49.757Z,95697.28
2018-03-17T15:56:20.765Z,95705.89
2018-03-17T15:58:51.824Z,95712.03
2018-03-17T16:01:22.875Z,95711.42
2018-03-17T16:03:53.867Z,95718.67
2018-03-17T16:06:24.954Z,95711.91
2018-03-17T16:08:55.916Z,95722.78
2018-03-17T16:11:26.934Z,95727.15
2018-03-17T16:13:57.905Z,95724.53
2018-03-17T16:16:28.905Z,95725.16
2018-03-17T16:18:59.870Z,95724.28
2018-03-17T16:21:30.894Z,95744.81
2018-03-17T16:24:01.920Z,95730.72
2018-03-17T16:26:32.911Z,95729.20
2018-03-17T16:29:03.970Z,95741.59
2018-03-17T16:31:35.219Z,95735.57
2018-03-17T16:34:06.259Z,95741.95
2018-03-17T16:36:37.277Z,95742.08
2018-03-17T16:39:08.314Z,95746.09
2018-03-17T16:41:39.317Z,95746.66
2018-03-17T16:44:10.358Z,95748.55
2018-03-17T16:46:41.416Z,95748.75
2018-03-17T16:49:12.621Z,95751.48
2018-03-17T16:51:43.672Z,95738.75
2018-03-17T16:54:14.684Z,95749.74
2018-03-17T16:56:45.757Z,95752.40
2018-03-17T16:59:16.786Z,95751.63
2018-03-17T17:01:47.743Z,95764.59
2018-03-17T17:04:18.745Z,95756.33
2018-03-17T17:06:49.764Z,95746.65
2018-03-17T17:09:20.740Z,95757.64
2018-03-17T17:11:51.779Z,95761.42
2018-03-17T17:14:22.829Z,95759.09
2018-03-17T17:16:53.842Z,95765.38
2018-03-17T17:19:26.217Z,95762.70
2018-03-17T17:21:57.305Z,95769.19
2018-03-17T17:24:28.306Z,95766.64
2018-03-17T17:26:59.596Z,95772.91
2018-03-17T17:29:30.624Z,95778.09
2018-03-17T17:32:01.626Z,95777.44
2018-03-17T17:34:32.638Z,95783.02
2018-03-17T17:37:03.684Z,95780.20
2018-03-17T17:39:34.709Z,95779.95
2018-03-17T17:42:05.689Z,95788.55
2018-03-17T17:44:36.675Z,95783.86
2018-03-17T17:47:07.643Z,95791.64
2018-03-17T17:49:38.715Z,95785.23
2018-03-17T17:52:10.902Z,95795.83
2018-03-17T17:54:41.979Z,95801.52
2018-03-17T17:57:13.045Z,95805.66
2018-03-17T17:59:44.056Z,95805.61
2018-03-17T18:02:15.015Z,95813.94
2018-03-17T18:04:46.083Z,95803.70
2018-03-17T18:07:17.108Z,95803.89
2018-03-17T18:09:48.095Z,95807.64
2018-03-17T18:12:19.111Z,95804.45
2018-03-17T18:14:50.147Z,95820.23
2018-03-17T18:17:21.160Z,95812.33
2018-03-17T18:19:52.233Z,95812.55
2018-03-17T18:22:23.247Z,95817.34
2018-03-17T18:24:54.314Z,95822.11
2018-03-17T18:27:25.379Z,95822.02
2018-03-17T18:29:56.537Z,95819.38
2018-03-17T18:32:27.710Z,95814.23
2018-03-17T18:34:58.919Z,95813.03
2018-03-17T18:37:29.930Z,95831.11
2018-03-17T18:40:01.019Z,95835.99
2018-03-17T18:42:32.099Z,95839.09
2018-03-17T18:45:03.177Z,95832.70
2018-03-17T18:47:34.209Z,95836.48
2018-03-17T18:50:05.220Z,95840.86
2018-03-17T18:52:36.302Z,95842.44
2018-03-17T18:55:07.419Z,95845.05
2018-03-17T18:57:38.454Z,95845.95
2018-03-17T19:00:10.240Z,95851.81
2018-03-17T19:02:41.585Z,95854.78
2018-03-17T19:05:12.939Z,95862.03
2018-03-17T19:07:43.965Z,95857.75
2018-03-17T19:10:15.021Z,95862.36
2018-03-17T19:12:46.394Z,95862.55
2018-03-17T19:15:17.462Z,95858.38
2018-03-17T19:17:48.491Z,95866.29
2018-03-17T19:20:26.567Z,95863.58
2018-03-17T19:22:58.079Z,95870.37
2018-03-17T19:25:36.174Z,95869.20
2018-03-17T19:28:07.230Z,95872.48
2018-03-17T19:30:38.268Z,95863.39
2018-03-17T19:33:09.289Z,95853.72
2018-03-17T19:35:40.374Z,95863.76
2018-03-17T19:38:11.481Z,95865.75
2018-03-17T19:40:42.523Z,95866.92
2018-03-17T19:43:13.547Z,95865.08
2018-03-17T19:45:44.588Z,95858.83
2018-03-17T19:48:15.560Z,95866.98
2018-03-17T19:50:46.732Z,95864.46
2018-03-17T19:53:18.119Z,95880.80
2018-03-17T19:55:49.280Z,95878.03
2018-03-17T19:58:20.284Z,95867.84
2018-03-17T20:00:51.331Z,95877.27
2018-03-17T20:03:22.689Z,95873.41
2018-03-17T20:05:54.159Z,95872.27
2018-03-17T20:08:25.148Z,95873.41
2018-03-17T20:10:56.178Z,95876.23
2018-03-17T20:13:27.251Z,95876.84
2018-03-17T20:15:58.279Z,95875.33
2018-03-17T20:18:29.280Z,95878.78
2018-03-17T20:21:00.322Z,95874.43
2018-03-17T20:23:31.427Z,95878.71
